sensor_id;sensor_type;location;lat;lon;timestamp;pressure;altitude;pressure_sealevel;temperature;humidity
19845;BME280;10083;51.038;7.012;2022-12-18T00:01:20;61159.28;;;-6.43;100.00
19845;BME280;10083;51.038;7.012;2022-12-18T00:03:49;60146.38;;;-5.80;100.00
19845;BME280;10083;51.038;7.012;2022-12-18T00:06:17;59484.41;;;-5.52;100.00
19845;BME280;10083;51.038;7.012;2022-12-18T00:08:47;59135.63;;;-5.33;100.00
19845;BME280;10083;51.038;7.012;2022-12-18T00:11:17;58876.25;;;-5.22;100.00
19845;BME280;10083;51.038;7.012;2022-12-18T00:13:46;59357.94;;;-5.52;100.00
19845;BME280;10083;51.038;7.012;2022-12-18T00:16:18;59129.31;;;-5.36;100.00
19845;BME280;10083;51.038;7.012;2022-12-18T00:18:46;58929.25;;;-5.28;100.00
19845;BME280;10083;51.038;7.012;2022-12-18T00:21:14;58742.59;;;-5.19;100.00
19845;BME280;10083;51.038;7.012;2022-12-18T00:23:43;58622.81;;;-5.17;100.00
19845;BME280;10083;51.038;7.012;2022-12-18T00:26:14;58493.84;;;-5.12;100.00
19845;BME280;10083;51.038;7.012;2022-12-18T00:28:43;58102.75;;;-4.93;100.00
19845;BME280;10083;51.038;7.012;2022-12-18T00:31:13;58231.69;;;-5.04;100.00
19845;BME280;10083;51.038;7.012;2022-12-18T00:33:41;58337.44;;;-5.09;100.00
19845;BME280;10083;51.038;7.012;2022-12-18T00:36:11;58327.06;;;-5.11;100.00
19845;BME280;10083;51.038;7.012;2022-12-18T00:38:39;58244.44;;;-5.11;100.00
19845;BME280;10083;51.038;7.012;2022-12-18T00:41:09;58242.31;;;-5.13;100.00
19845;BME280;10083;51.038;7.012;2022-12-18T00:43:38;58150.44;;;-5.12;100.00
19845;BME280;10083;51.038;7.012;2022-12-18T00:46:05;58030.69;;;-5.08;100.00
19845;BME280;10083;51.038;7.012;2022-12-18T00:48:32;57868.13;;;-5.00;100.00
19845;BME280;10083;51.038;7.012;2022-12-18T00:51:00;58038.41;;;-5.11;100.00
19845;BME280;10083;51.038;7.012;2022-12-18T00:53:27;57991.94;;;-5.11;100.00
19845;BME280;10083;51.038;7.012;2022-12-18T00:55:56;57827.28;;;-5.05;100.00
19845;BME280;10083;51.038;7.012;2022-12-18T00:58:23;57464.38;;;-4.86;100.00
19845;BME280;10083;51.038;7.012;2022-12-18T01:00:52;57513.91;;;-4.91;100.00
19845;BME280;10083;51.038;7.012;2022-12-18T01:03:19;57492.25;;;-4.89;100.00
19845;BME280;10083;51.038;7.012;2022-12-18T01:05:46;57630.09;;;-4.96;100.00
19845;BME280;10083;51.038;7.012;2022-12-18T01:08:13;57386.91;;;-4.84;100.00
19845;BME280;10083;51.038;7.012;2022-12-18T01:10:43;57480.88;;;-4.90;100.00
19845;BME280;10083;51.038;7.012;2022-12-18T01:13:10;57658.47;;;-4.98;100.00
19845;BME280;10083;51.038;7.012;2022-12-18T01:15:37;57405.47;;;-4.88;100.00
19845;BME280;10083;51.038;7.012;2022-12-18T01:18:06;57276.38;;;-4.83;100.00
19845;BME280;10083;51.038;7.012;2022-12-18T01:20:33;57416.81;;;-4.92;100.00
19845;BME280;10083;51.038;7.012;2022-12-18T01:23:00;57579.94;;;-5.02;100.00
19845;BME280;10083;51.038;7.012;2022-12-18T01:25:27;57621.75;;;-5.04;100.00
19845;BME280;10083;51.038;7.012;2022-12-18T01:27:54;57627.47;;;-5.01;100.00
19845;BME280;10083;51.038;7.012;2022-12-18T01:30:27;57600.63;;;-4.99;100.00
19845;BME280;10083;51.038;7.012;2022-12-18T01:32:54;57638.25;;;-5.06;100.00
19845;BME280;10083;51.038;7.012;2022-12-18T01:35:23;57657.31;;;-5.10;100.00
19845;BME280;10083;51.038;7.012;2022-12-18T01:37:53;57735.19;;;-5.17;100.00
19845;BME280;10083;51.038;7.012;2022-12-18T01:40:21;57690.31;;;-5.15;100.00
19845;BME280;10083;51.038;7.012;2022-12-18T01:42:51;57636.16;;;-5.10;100.00
19845;BME280;10083;51.038;7.012;2022-12-18T01:45:25;57881.72;;;-5.25;100.00
19845;BME280;10083;51.038;7.012;2022-12-18T01:47:54;58093.72;;;-5.34;100.00
19845;BME280;10083;51.038;7.012;2022-12-18T01:50:28;58135.50;;;-5.36;100.00
19845;BME280;10083;51.038;7.012;2022-12-18T01:52:58;58481.88;;;-5.58;100.00
19845;BME280;10083;51.038;7.012;2022-12-18T01:55:32;58448.84;;;-5.58;100.00
19845;BME280;10083;51.038;7.012;2022-12-18T01:58:02;58528.75;;;-5.60;100.00
19845;BME280;10083;51.038;7.012;2022-12-18T02:00:30;58563.31;;;-5.62;100.00
19845;BME280;10083;51.038;7.012;2022-12-18T02:02:57;58547.31;;;-5.62;100.00
19845;BME280;10083;51.038;7.012;2022-12-18T02:05:36;58564.69;;;-5.68;100.00
19845;BME280;10083;51.038;7.012;2022-12-18T02:08:12;58611.56;;;-5.70;100.00
19845;BME280;10083;51.038;7.012;2022-12-18T02:10:55;58860.25;;;-5.88;100.00
19845;BME280;10083;51.038;7.012;2022-12-18T02:13:37;59295.66;;;-6.13;100.00
19845;BME280;10083;51.038;7.012;2022-12-18T02:16:19;59323.94;;;-6.16;100.00
19845;BME280;10083;51.038;7.012;2022-12-18T02:18:54;59312.13;;;-6.15;100.00
19845;BME280;10083;51.038;7.012;2022-12-18T02:21:31;59416.97;;;-6.23;100.00
19845;BME280;10083;51.038;7.012;2022-12-18T02:24:22;59522.88;;;-6.30;100.00
19845;BME280;10083;51.038;7.012;2022-12-18T02:26:58;59743.31;;;-6.46;100.00
19845;BME280;10083;51.038;7.012;2022-12-18T02:29:32;59748.72;;;-6.41;100.00
19845;BME280;10083;51.038;7.012;2022-12-18T02:32:04;59944.63;;;-6.50;100.00
19845;BME280;10083;51.038;7.012;2022-12-18T02:34:36;59943.72;;;-6.58;100.00
19845;BME280;10083;51.038;7.012;2022-12-18T02:37:09;59812.00;;;-6.54;100.00
19845;BME280;10083;51.038;7.012;2022-12-18T02:39:40;59750.69;;;-6.53;100.00
19845;BME280;10083;51.038;7.012;2022-12-18T02:42:13;59847.69;;;-6.61;100.00
19845;BME280;10083;51.038;7.012;2022-12-18T02:44:44;60009.50;;;-6.71;100.00
19845;BME280;10083;51.038;7.012;2022-12-18T02:47:18;60142.38;;;-6.82;100.00
19845;BME280;10083;51.038;7.012;2022-12-18T02:49:54;60084.34;;;-6.78;100.00
19845;BME280;10083;51.038;7.012;2022-12-18T02:52:31;60303.53;;;-6.93;100.00
19845;BME280;10083;51.038;7.012;2022-12-18T02:55:15;60282.53;;;-6.91;100.00
19845;BME280;10083;51.038;7.012;2022-12-18T02:57:54;60299.47;;;-6.92;100.00
19845;BME280;10083;51.038;7.012;2022-12-18T03:00:29;60482.66;;;-7.03;100.00
19845;BME280;10083;51.038;7.012;2022-12-18T03:03:04;60617.03;;;-7.12;100.00
19845;BME280;10083;51.038;7.012;2022-12-18T03:05:36;60622.72;;;-7.12;100.00
19845;BME280;10083;51.038;7.012;2022-12-18T03:08:07;60535.09;;;-7.05;100.00
19845;BME280;10083;51.038;7.012;2022-12-18T03:10:40;60772.50;;;-7.21;100.00
19845;BME280;10083;51.038;7.012;2022-12-18T03:13:15;60712.38;;;-7.19;100.00
19845;BME280;10083;51.038;7.012;2022-12-18T03:15:45;60866.16;;;-7.29;100.00
19845;BME280;10083;51.038;7.012;2022-12-18T03:18:21;60989.22;;;-7.37;100.00
19845;BME280;10083;51.038;7.012;2022-12-18T03:20:53;61015.88;;;-7.39;100.00
19845;BME280;10083;51.038;7.012;2022-12-18T03:23:26;61123.44;;;-7.46;100.00
19845;BME280;10083;51.038;7.012;2022-12-18T03:25:57;61032.25;;;-7.40;100.00
19845;BME280;10083;51.038;7.012;2022-12-18T03:28:30;60869.69;;;-7.31;100.00
19845;BME280;10083;51.038;7.012;2022-12-18T03:31:04;61021.94;;;-7.40;100.00
19845;BME280;10083;51.038;7.012;2022-12-18T03:33:38;61093.47;;;-7.48;100.00
19845;BME280;10083;51.038;7.012;2022-12-18T03:36:07;60636.78;;;-7.18;100.00
19845;BME280;10083;51.038;7.012;2022-12-18T03:38:35;60824.59;;;-7.27;100.00
19845;BME280;10083;51.038;7.012;2022-12-18T03:41:07;60891.75;;;-7.32;100.00
19845;BME280;10083;51.038;7.012;2022-12-18T03:44:00;61319.00;;;-7.60;100.00
19845;BME280;10083;51.038;7.012;2022-12-18T03:46:36;61140.34;;;-7.47;100.00
19845;BME280;10083;51.038;7.012;2022-12-18T03:49:18;60958.31;;;-7.37;100.00
19845;BME280;10083;51.038;7.012;2022-12-18T03:51:54;61034.06;;;-7.43;100.00
19845;BME280;10083;51.038;7.012;2022-12-18T03:54:25;61175.47;;;-7.53;100.00
19845;BME280;10083;51.038;7.012;2022-12-18T03:57:04;61312.56;;;-7.64;100.00
19845;BME280;10083;51.038;7.012;2022-12-18T03:59:36;61504.22;;;-7.74;100.00
19845;BME280;10083;51.038;7.012;2022-12-18T04:02:06;61449.47;;;-7.70;100.00
19845;BME280;10083;51.038;7.012;2022-12-18T04:04:35;61159.81;;;-7.55;100.00
19845;BME280;10083;51.038;7.012;2022-12-18T04:07:04;60743.53;;;-7.31;100.00
19845;BME280;10083;51.038;7.012;2022-12-18T04:09:34;60757.88;;;-7.32;100.00
19845;BME280;10083;51.038;7.012;2022-12-18T04:12:03;61023.06;;;-7.53;100.00
19845;BME280;10083;51.038;7.012;2022-12-18T04:14:31;61016.25;;;-7.55;100.00
19845;BME280;10083;51.038;7.012;2022-12-18T04:17:03;61255.94;;;-7.71;100.00
19845;BME280;10083;51.038;7.012;2022-12-18T04:19:32;61489.06;;;-7.84;100.00
19845;BME280;10083;51.038;7.012;2022-12-18T04:22:01;61550.59;;;-7.86;100.00
19845;BME280;10083;51.038;7.012;2022-12-18T04:24:35;61470.16;;;-7.82;100.00
19845;BME280;10083;51.038;7.012;2022-12-18T04:27:12;61559.56;;;-7.90;100.00
19845;BME280;10083;51.038;7.012;2022-12-18T04:29:43;61565.84;;;-7.89;100.00
19845;BME280;10083;51.038;7.012;2022-12-18T04:32:13;61474.19;;;-7.83;100.00
19845;BME280;10083;51.038;7.012;2022-12-18T04:34:43;61360.31;;;-7.72;100.00
19845;BME280;10083;51.038;7.012;2022-12-18T04:37:10;61703.97;;;-7.92;100.00
19845;BME280;10083;51.038;7.012;2022-12-18T04:39:39;61811.94;;;-7.99;100.00
19845;BME280;10083;51.038;7.012;2022-12-18T04:42:13;61429.38;;;-7.77;100.00
19845;BME280;10083;51.038;7.012;2022-12-18T04:44:42;61491.84;;;-7.81;100.00
19845;BME280;10083;51.038;7.012;2022-12-18T04:47:09;61058.00;;;-7.54;100.00
19845;BME280;10083;51.038;7.012;2022-12-18T04:49:38;60976.75;;;-7.53;100.00
19845;BME280;10083;51.038;7.012;2022-12-18T04:52:05;60844.00;;;-7.52;100.00
19845;BME280;10083;51.038;7.012;2022-12-18T04:54:32;60623.34;;;-7.42;100.00
19845;BME280;10083;51.038;7.012;2022-12-18T04:56:59;60487.25;;;-7.37;100.00
19845;BME280;10083;51.038;7.012;2022-12-18T04:59:26;60396.25;;;-7.36;100.00
19845;BME280;10083;51.038;7.012;2022-12-18T05:01:53;60190.50;;;-7.23;100.00
19845;BME280;10083;51.038;7.012;2022-12-18T05:04:21;59808.50;;;-7.03;100.00
19845;BME280;10083;51.038;7.012;2022-12-18T05:06:50;59595.69;;;-6.95;100.00
19845;BME280;10083;51.038;7.012;2022-12-18T05:09:17;59489.25;;;-6.91;100.00
19845;BME280;10083;51.038;7.012;2022-12-18T05:11:45;59497.97;;;-6.92;100.00
19845;BME280;10083;51.038;7.012;2022-12-18T05:14:12;59431.09;;;-6.90;100.00
19845;BME280;10083;51.038;7.012;2022-12-18T05:16:40;59406.97;;;-6.88;100.00
19845;BME280;10083;51.038;7.012;2022-12-18T05:19:07;59412.53;;;-6.90;100.00
19845;BME280;10083;51.038;7.012;2022-12-18T05:21:34;59430.47;;;-6.93;100.00
19845;BME280;10083;51.038;7.012;2022-12-18T05:24:04;59476.59;;;-6.98;100.00
19845;BME280;10083;51.038;7.012;2022-12-18T05:26:31;59633.06;;;-7.10;100.00
19845;BME280;10083;51.038;7.012;2022-12-18T05:28:59;59502.09;;;-7.03;100.00
19845;BME280;10083;51.038;7.012;2022-12-18T05:31:26;59512.41;;;-7.03;100.00
19845;BME280;10083;51.038;7.012;2022-12-18T05:33:53;59527.22;;;-7.06;100.00
19845;BME280;10083;51.038;7.012;2022-12-18T05:36:20;59529.13;;;-7.09;100.00
19845;BME280;10083;51.038;7.012;2022-12-18T05:38:47;59606.53;;;-7.16;100.00
19845;BME280;10083;51.038;7.012;2022-12-18T05:41:16;59728.09;;;-7.25;100.00
19845;BME280;10083;51.038;7.012;2022-12-18T05:43:43;59776.91;;;-7.27;100.00
19845;BME280;10083;51.038;7.012;2022-12-18T05:46:13;59555.06;;;-7.16;100.00
19845;BME280;10083;51.038;7.012;2022-12-18T05:48:42;59603.19;;;-7.21;100.00
19845;BME280;10083;51.038;7.012;2022-12-18T05:51:12;59545.59;;;-7.20;100.00
19845;BME280;10083;51.038;7.012;2022-12-18T05:53:40;59824.31;;;-7.36;100.00
19845;BME280;10083;51.038;7.012;2022-12-18T05:56:09;59897.06;;;-7.43;100.00
19845;BME280;10083;51.038;7.012;2022-12-18T05:58:39;59992.97;;;-7.49;100.00
19845;BME280;10083;51.038;7.012;2022-12-18T06:01:11;59737.59;;;-7.31;100.00
19845;BME280;10083;51.038;7.012;2022-12-18T06:03:39;59826.47;;;-7.34;100.00
19845;BME280;10083;51.038;7.012;2022-12-18T06:06:13;59846.94;;;-7.37;100.00
19845;BME280;10083;51.038;7.012;2022-12-18T06:08:40;59935.13;;;-7.43;100.00
19845;BME280;10083;51.038;7.012;2022-12-18T06:11:07;59882.72;;;-7.42;100.00
19845;BME280;10083;51.038;7.012;2022-12-18T06:13:34;59339.47;;;-7.13;100.00
19845;BME280;10083;51.038;7.012;2022-12-18T06:16:04;59246.25;;;-7.13;100.00
19845;BME280;10083;51.038;7.012;2022-12-18T06:18:32;59150.69;;;-7.09;100.00
19845;BME280;10083;51.038;7.012;2022-12-18T06:20:59;58937.38;;;-6.99;100.00
19845;BME280;10083;51.038;7.012;2022-12-18T06:23:27;59001.56;;;-7.04;100.00
19845;BME280;10083;51.038;7.012;2022-12-18T06:25:56;59399.94;;;-7.31;100.00
19845;BME280;10083;51.038;7.012;2022-12-18T06:28:23;59702.31;;;-7.47;100.00
19845;BME280;10083;51.038;7.012;2022-12-18T06:30:50;59518.09;;;-7.36;100.00
19845;BME280;10083;51.038;7.012;2022-12-18T06:33:19;59197.34;;;-7.13;100.00
19845;BME280;10083;51.038;7.012;2022-12-18T06:35:47;59172.69;;;-7.12;100.00
19845;BME280;10083;51.038;7.012;2022-12-18T06:38:14;59230.72;;;-7.16;100.00
19845;BME280;10083;51.038;7.012;2022-12-18T06:40:42;59459.25;;;-7.28;100.00
19845;BME280;10083;51.038;7.012;2022-12-18T06:43:09;59676.19;;;-7.45;100.00
19845;BME280;10083;51.038;7.012;2022-12-18T06:45:36;59969.66;;;-7.61;100.00
19845;BME280;10083;51.038;7.012;2022-12-18T06:48:04;59998.34;;;-7.63;100.00
19845;BME280;10083;51.038;7.012;2022-12-18T06:50:32;60054.66;;;-7.68;100.00
19845;BME280;10083;51.038;7.012;2022-12-18T06:52:59;60005.41;;;-7.66;100.00
19845;BME280;10083;51.038;7.012;2022-12-18T06:55:27;59819.63;;;-7.57;100.00
19845;BME280;10083;51.038;7.012;2022-12-18T06:57:53;59611.72;;;-7.47;100.00
19845;BME280;10083;51.038;7.012;2022-12-18T07:00:21;59494.25;;;-7.39;100.00
19845;BME280;10083;51.038;7.012;2022-12-18T07:02:48;59215.38;;;-7.25;100.00
19845;BME280;10083;51.038;7.012;2022-12-18T07:05:15;58763.16;;;-7.05;100.00
19845;BME280;10083;51.038;7.012;2022-12-18T07:07:44;58664.25;;;-7.06;100.00
19845;BME280;10083;51.038;7.012;2022-12-18T07:10:11;58593.25;;;-7.05;100.00
19845;BME280;10083;51.038;7.012;2022-12-18T07:12:38;58509.88;;;-7.04;100.00
19845;BME280;10083;51.038;7.012;2022-12-18T07:15:07;58362.78;;;-6.99;100.00
19845;BME280;10083;51.038;7.012;2022-12-18T07:17:34;58310.22;;;-7.00;100.00
19845;BME280;10083;51.038;7.012;2022-12-18T07:20:01;58256.44;;;-6.90;100.00
19845;BME280;10083;51.038;7.012;2022-12-18T07:22:28;58250.81;;;-6.88;100.00
19845;BME280;10083;51.038;7.012;2022-12-18T07:24:57;58173.19;;;-6.83;100.00
19845;BME280;10083;51.038;7.012;2022-12-18T07:27:24;58122.63;;;-6.88;100.00
19845;BME280;10083;51.038;7.012;2022-12-18T07:29:51;57973.88;;;-6.84;100.00
19845;BME280;10083;51.038;7.012;2022-12-18T07:32:18;57835.97;;;-6.78;100.00
19845;BME280;10083;51.038;7.012;2022-12-18T07:34:45;57797.34;;;-6.78;100.00
19845;BME280;10083;51.038;7.012;2022-12-18T07:37:12;57768.00;;;-6.79;100.00
19845;BME280;10083;51.038;7.012;2022-12-18T07:39:39;57776.72;;;-6.81;100.00
19845;BME280;10083;51.038;7.012;2022-12-18T07:42:09;57636.75;;;-6.74;100.00
19845;BME280;10083;51.038;7.012;2022-12-18T07:44:53;57563.66;;;-6.73;100.00
19845;BME280;10083;51.038;7.012;2022-12-18T07:47:20;57537.41;;;-6.71;100.00
19845;BME280;10083;51.038;7.012;2022-12-18T07:49:47;57539.97;;;-6.73;100.00
19845;BME280;10083;51.038;7.012;2022-12-18T07:52:14;57347.44;;;-6.65;100.00
19845;BME280;10083;51.038;7.012;2022-12-18T07:54:41;57267.66;;;-6.60;100.00
19845;BME280;10083;51.038;7.012;2022-12-18T08:00:18;56992.16;;;-6.53;100.00
19845;BME280;10083;51.038;7.012;2022-12-18T08:03:21;56840.72;;;-6.47;100.00
19845;BME280;10083;51.038;7.012;2022-12-18T08:06:27;56705.25;;;-6.38;100.00
19845;BME280;10083;51.038;7.012;2022-12-18T08:09:57;56585.75;;;-6.39;100.00
19845;BME280;10083;51.038;7.012;2022-12-18T08:12:38;56654.75;;;-6.32;100.00
19845;BME280;10083;51.038;7.012;2022-12-18T08:15:44;56563.53;;;-6.28;100.00
19845;BME280;10083;51.038;7.012;2022-12-18T08:21:14;56165.50;;;-6.02;100.00
19845;BME280;10083;51.038;7.012;2022-12-18T08:23:43;56044.78;;;-5.93;100.00
19845;BME280;10083;51.038;7.012;2022-12-18T08:26:11;55939.59;;;-5.90;100.00
19845;BME280;10083;51.038;7.012;2022-12-18T08:28:39;55699.63;;;-5.78;100.00
19845;BME280;10083;51.038;7.012;2022-12-18T08:31:09;55578.88;;;-5.72;100.00
19845;BME280;10083;51.038;7.012;2022-12-18T08:33:38;55371.41;;;-5.63;100.00
19845;BME280;10083;51.038;7.012;2022-12-18T08:36:06;55135.44;;;-5.52;100.00
19845;BME280;10083;51.038;7.012;2022-12-18T08:38:35;54915.09;;;-5.48;100.00
19845;BME280;10083;51.038;7.012;2022-12-18T08:41:04;54819.03;;;-5.43;100.00
19845;BME280;10083;51.038;7.012;2022-12-18T08:43:31;54399.00;;;-5.24;100.00
19845;BME280;10083;51.038;7.012;2022-12-18T08:46:21;54035.09;;;-5.09;100.00
19845;BME280;10083;51.038;7.012;2022-12-18T08:48:50;53908.31;;;-5.01;100.00
19845;BME280;10083;51.038;7.012;2022-12-18T08:51:18;53859.19;;;-4.98;100.00
19845;BME280;10083;51.038;7.012;2022-12-18T08:53:47;53582.28;;;-4.83;100.00
19845;BME280;10083;51.038;7.012;2022-12-18T08:56:15;53313.66;;;-4.70;100.00
19845;BME280;10083;51.038;7.012;2022-12-18T08:58:45;53057.81;;;-4.57;100.00
19845;BME280;10083;51.038;7.012;2022-12-18T09:01:13;52994.56;;;-4.53;100.00
19845;BME280;10083;51.038;7.012;2022-12-18T09:03:43;52763.94;;;-4.40;100.00
19845;BME280;10083;51.038;7.012;2022-12-18T09:06:13;52597.09;;;-4.26;100.00
19845;BME280;10083;51.038;7.012;2022-12-18T09:08:43;52305.38;;;-4.06;100.00
19845;BME280;10083;51.038;7.012;2022-12-18T09:11:13;52129.81;;;-4.01;100.00
19845;BME280;10083;51.038;7.012;2022-12-18T09:13:41;51923.72;;;-3.89;100.00
19845;BME280;10083;51.038;7.012;2022-12-18T09:16:09;51821.84;;;-3.82;100.00
19845;BME280;10083;51.038;7.012;2022-12-18T09:18:37;51524.50;;;-3.63;100.00
19845;BME280;10083;51.038;7.012;2022-12-18T09:21:12;51306.69;;;-3.50;100.00
19845;BME280;10083;51.038;7.012;2022-12-18T09:23:41;51318.47;;;-3.54;100.00
19845;BME280;10083;51.038;7.012;2022-12-18T09:26:11;50943.31;;;-3.35;100.00
19845;BME280;10083;51.038;7.012;2022-12-18T09:28:39;50565.09;;;-3.13;100.00
19845;BME280;10083;51.038;7.012;2022-12-18T09:31:07;50199.38;;;-2.94;100.00
19845;BME280;10083;51.038;7.012;2022-12-18T09:33:36;49780.69;;;-2.71;100.00
19845;BME280;10083;51.038;7.012;2022-12-18T09:36:05;49498.56;;;-2.54;100.00
19845;BME280;10083;51.038;7.012;2022-12-18T09:41:39;48764.16;;;-2.12;100.00
19845;BME280;10083;51.038;7.012;2022-12-18T09:44:15;48334.22;;;-1.83;100.00
19845;BME280;10083;51.038;7.012;2022-12-18T09:46:48;48072.97;;;-1.65;100.00
19845;BME280;10083;51.038;7.012;2022-12-18T09:49:20;47868.50;;;-1.53;100.00
19845;BME280;10083;51.038;7.012;2022-12-18T09:51:52;47599.66;;;-1.34;100.00
19845;BME280;10083;51.038;7.012;2022-12-18T09:54:22;47366.97;;;-1.15;100.00
19845;BME280;10083;51.038;7.012;2022-12-18T09:56:54;47315.13;;;-1.12;100.00
19845;BME280;10083;51.038;7.012;2022-12-18T09:59:24;47011.41;;;-0.95;100.00
19845;BME280;10083;51.038;7.012;2022-12-18T10:01:56;46912.44;;;-0.89;100.00
19845;BME280;10083;51.038;7.012;2022-12-18T10:04:23;46872.22;;;-0.84;100.00
19845;BME280;10083;51.038;7.012;2022-12-18T10:06:56;46768.03;;;-0.76;100.00
19845;BME280;10083;51.038;7.012;2022-12-18T10:09:30;46569.06;;;-0.60;100.00
19845;BME280;10083;51.038;7.012;2022-12-18T10:12:08;46364.84;;;-0.47;100.00
19845;BME280;10083;51.038;7.012;2022-12-18T10:14:43;46399.38;;;-0.42;100.00
19845;BME280;10083;51.038;7.012;2022-12-18T10:17:23;46235.69;;;-0.27;100.00
19845;BME280;10083;51.038;7.012;2022-12-18T10:19:58;45901.69;;;-0.02;100.00
19845;BME280;10083;51.038;7.012;2022-12-18T10:22:36;46297.78;;;-0.15;100.00
19845;BME280;10083;51.038;7.012;2022-12-18T10:25:17;46206.31;;;-0.04;100.00
19845;BME280;10083;51.038;7.012;2022-12-18T10:27:48;46136.91;;;0.07;100.00
19845;BME280;10083;51.038;7.012;2022-12-18T10:30:22;45999.47;;;0.19;100.00
19845;BME280;10083;51.038;7.012;2022-12-18T10:32:50;46008.38;;;0.27;100.00
19845;BME280;10083;51.038;7.012;2022-12-18T10:35:21;45931.97;;;0.38;100.00
19845;BME280;10083;51.038;7.012;2022-12-18T10:38:21;45641.31;;;0.60;100.00
19845;BME280;10083;51.038;7.012;2022-12-18T10:40:50;45570.22;;;0.78;100.00
19845;BME280;10083;51.038;7.012;2022-12-18T10:43:23;45912.25;;;0.67;100.00
19845;BME280;10083;51.038;7.012;2022-12-18T10:46:03;45912.88;;;0.77;100.00
19845;BME280;10083;51.038;7.012;2022-12-18T10:48:33;45955.59;;;0.85;100.00
19845;BME280;10083;51.038;7.012;2022-12-18T10:51:02;45876.81;;;1.00;100.00
19845;BME280;10083;51.038;7.012;2022-12-18T10:53:31;45771.91;;;1.17;100.00
19845;BME280;10083;51.038;7.012;2022-12-18T10:56:00;45713.44;;;1.31;100.00
19845;BME280;10083;51.038;7.012;2022-12-18T10:58:32;45985.03;;;1.23;100.00
19845;BME280;10083;51.038;7.012;2022-12-18T11:01:07;46407.56;;;1.09;100.00
19845;BME280;10083;51.038;7.012;2022-12-18T11:03:36;46258.50;;;1.30;100.00
19845;BME280;10083;51.038;7.012;2022-12-18T11:06:08;46349.44;;;1.36;100.00
19845;BME280;10083;51.038;7.012;2022-12-18T11:08:36;46280.66;;;1.50;100.00
19845;BME280;10083;51.038;7.012;2022-12-18T11:11:07;46744.16;;;1.32;100.00
19845;BME280;10083;51.038;7.012;2022-12-18T11:13:35;47056.03;;;1.22;100.00
19845;BME280;10083;51.038;7.012;2022-12-18T11:16:03;47075.06;;;1.32;100.00
19845;BME280;10083;51.038;7.012;2022-12-18T11:18:32;46983.00;;;1.47;100.00
19845;BME280;10083;51.038;7.012;2022-12-18T11:21:07;47034.59;;;1.52;100.00
19845;BME280;10083;51.038;7.012;2022-12-18T11:23:35;47543.50;;;1.32;100.00
19845;BME280;10083;51.038;7.012;2022-12-18T11:26:09;47257.16;;;1.60;100.00
19845;BME280;10083;51.038;7.012;2022-12-18T11:28:41;47727.47;;;1.44;100.00
19845;BME280;10083;51.038;7.012;2022-12-18T11:31:19;47862.44;;;1.46;100.00
19845;BME280;10083;51.038;7.012;2022-12-18T11:33:56;47655.56;;;1.69;100.00
19845;BME280;10083;51.038;7.012;2022-12-18T11:36:33;47757.16;;;1.72;100.00
19845;BME280;10083;51.038;7.012;2022-12-18T11:39:09;48289.06;;;1.52;100.00
19845;BME280;10083;51.038;7.012;2022-12-18T11:41:45;48687.63;;;1.37;100.00
19845;BME280;10083;51.038;7.012;2022-12-18T11:44:41;48638.84;;;1.50;100.00
19845;BME280;10083;51.038;7.012;2022-12-18T11:47:23;49192.91;;;1.28;100.00
19845;BME280;10083;51.038;7.012;2022-12-18T11:50:00;49066.31;;;1.47;100.00
19845;BME280;10083;51.038;7.012;2022-12-18T11:52:34;49277.72;;;1.48;100.00
19845;BME280;10083;51.038;7.012;2022-12-18T11:55:12;49717.63;;;1.30;100.00
19845;BME280;10083;51.038;7.012;2022-12-18T11:57:54;50079.84;;;1.16;100.00
19845;BME280;10083;51.038;7.012;2022-12-18T12:00:25;50303.00;;;1.09;100.00
19845;BME280;10083;51.038;7.012;2022-12-18T12:03:35;50881.09;;;0.81;100.00
19845;BME280;10083;51.038;7.012;2022-12-18T12:06:14;51280.66;;;0.68;100.00
19845;BME280;10083;51.038;7.012;2022-12-18T12:08:59;51385.44;;;0.72;100.00
19845;BME280;10083;51.038;7.012;2022-12-18T12:12:19;51801.25;;;0.52;100.00
19845;BME280;10083;51.038;7.012;2022-12-18T12:15:01;51730.63;;;0.71;100.00
19845;BME280;10083;51.038;7.012;2022-12-18T12:17:54;52041.56;;;0.58;100.00
19845;BME280;10083;51.038;7.012;2022-12-18T12:20:45;52196.75;;;0.57;100.00
19845;BME280;10083;51.038;7.012;2022-12-18T12:23:26;52539.06;;;0.48;100.00
19845;BME280;10083;51.038;7.012;2022-12-18T12:26:17;52706.75;;;0.46;100.00
19845;BME280;10083;51.038;7.012;2022-12-18T12:29:01;53084.13;;;0.32;100.00
19845;BME280;10083;51.038;7.012;2022-12-18T12:31:52;53143.09;;;0.37;100.00
19845;BME280;10083;51.038;7.012;2022-12-18T12:34:26;53236.13;;;0.39;100.00
19845;BME280;10083;51.038;7.012;2022-12-18T12:37:18;53311.41;;;0.41;100.00
19845;BME280;10083;51.038;7.012;2022-12-18T12:39:58;53413.69;;;0.45;100.00
19845;BME280;10083;51.038;7.012;2022-12-18T12:42:38;53604.84;;;0.43;100.00
19845;BME280;10083;51.038;7.012;2022-12-18T12:45:30;53870.31;;;0.35;100.00
19845;BME280;10083;51.038;7.012;2022-12-18T12:48:05;54114.00;;;0.34;100.00
19845;BME280;10083;51.038;7.012;2022-12-18T12:50:38;54309.84;;;0.32;100.00
19845;BME280;10083;51.038;7.012;2022-12-18T12:53:09;54577.19;;;0.26;100.00
19845;BME280;10083;51.038;7.012;2022-12-18T12:55:42;54982.94;;;0.10;100.00
19845;BME280;10083;51.038;7.012;2022-12-18T12:58:19;55010.72;;;0.17;100.00
19845;BME280;10083;51.038;7.012;2022-12-18T13:01:08;55188.91;;;0.13;100.00
19845;BME280;10083;51.038;7.012;2022-12-18T13:03:55;55267.91;;;0.17;100.00
19845;BME280;10083;51.038;7.012;2022-12-18T13:06:37;55409.94;;;0.18;100.00
19845;BME280;10083;51.038;7.012;2022-12-18T13:09:13;55465.44;;;0.24;100.00
19845;BME280;10083;51.038;7.012;2022-12-18T13:11:45;55552.75;;;0.28;100.00
19845;BME280;10083;51.038;7.012;2022-12-18T13:14:39;55783.13;;;0.22;100.00
19845;BME280;10083;51.038;7.012;2022-12-18T13:17:29;55872.56;;;0.25;100.00
19845;BME280;10083;51.038;7.012;2022-12-18T13:20:10;56157.63;;;0.16;100.00
19845;BME280;10083;51.038;7.012;2022-12-18T13:22:43;56261.19;;;0.18;100.00
19845;BME280;10083;51.038;7.012;2022-12-18T13:25:32;56132.22;;;0.32;100.00
19845;BME280;10083;51.038;7.012;2022-12-18T13:28:11;56315.69;;;0.26;100.00
19845;BME280;10083;51.038;7.012;2022-12-18T13:30:48;56406.78;;;0.28;100.00